createdAt,value
2023-03-26T00:01:37.527Z,-1.18
2023-03-26T00:04:43.128Z,-0.95
2023-03-26T00:07:47.106Z,-0.67
2023-03-26T00:10:50.940Z,-0.40
2023-03-26T00:13:58.066Z,-0.19
2023-03-26T00:17:02.002Z,-0.04
2023-03-26T00:20:06.581Z,0.14
2023-03-26T00:23:10.284Z,0.21
2023-03-26T00:26:14.577Z,0.16
2023-03-26T00:29:19.238Z,0.21
2023-03-26T00:32:23.762Z,0.23
2023-03-26T00:35:27.633Z,0.11
2023-03-26T00:38:31.870Z,-0.17
2023-03-26T00:41:44.326Z,-0.18
2023-03-26T00:44:48.387Z,-0.38
2023-03-26T00:47:52.256Z,-0.74
2023-03-26T00:50:57.365Z,-0.95
2023-03-26T00:54:01.317Z,-0.98
2023-03-26T00:57:07.630Z,-1.07
2023-03-26T01:00:15.836Z,-1.08
2023-03-26T01:03:27.552Z,-1.09
2023-03-26T01:06:36.492Z,-1.03
2023-03-26T01:09:51.041Z,-0.69
2023-03-26T01:12:55.062Z,-0.95
2023-03-26T01:16:02.813Z,-0.84
2023-03-26T01:19:13.492Z,-0.88
2023-03-26T01:22:23.803Z,-0.77
2023-03-26T01:25:35.386Z,-0.76
2023-03-26T01:28:42.316Z,-0.56
2023-03-26T01:32:04.067Z,-0.53
2023-03-26T01:35:53.894Z,-0.17
2023-03-26T01:39:19.621Z,0.00
2023-03-26T01:42:42.347Z,0.24
2023-03-26T01:45:48.890Z,0.40
2023-03-26T01:48:52.726Z,0.50
2023-03-26T01:51:58.875Z,0.62
2023-03-26T01:55:03.474Z,0.79
2023-03-26T01:58:29.887Z,0.79
2023-03-26T02:02:01.859Z,0.62
2023-03-26T02:05:50.200Z,0.74
2023-03-26T02:08:59.987Z,0.93
2023-03-26T02:12:05.295Z,0.97
2023-03-26T02:15:09.748Z,1.02
2023-03-26T02:18:14.369Z,0.79
2023-03-26T02:21:26.643Z,0.68
2023-03-26T02:24:31.421Z,0.75
2023-03-26T02:27:35.179Z,0.78
2023-03-26T02:30:40.826Z,0.82
2023-03-26T02:33:48.084Z,0.65
2023-03-26T02:36:52.232Z,0.92
2023-03-26T02:39:56.192Z,1.15
2023-03-26T02:43:07.293Z,1.41
2023-03-26T02:46:12.465Z,1.52
2023-03-26T02:49:31.440Z,1.86
2023-03-26T02:52:36.668Z,2.10
2023-03-26T02:55:41.450Z,2.34
2023-03-26T02:58:44.855Z,2.58
2023-03-26T03:01:49.180Z,2.51
2023-03-26T03:05:02.042Z,2.50
2023-03-26T03:08:09.801Z,2.81
2023-03-26T03:11:25.469Z,3.01
2023-03-26T03:17:45.171Z,2.81
2023-03-26T03:20:49.114Z,3.11
2023-03-26T03:23:54.280Z,3.30
2023-03-26T03:27:00.382Z,3.27
2023-03-26T03:30:13.296Z,3.13
2023-03-26T03:33:44.003Z,3.18
2023-03-26T03:36:49.312Z,3.43
2023-03-26T03:40:09.188Z,3.46
2023-03-26T03:43:13.857Z,3.49
2023-03-26T03:46:31.202Z,3.81
2023-03-26T03:49:35.017Z,3.89
2023-03-26T03:52:39.171Z,4.08
2023-03-26T03:55:43.836Z,4.20
2023-03-26T03:58:48.365Z,4.29
2023-03-26T04:02:00.465Z,4.15
2023-03-26T04:05:13.754Z,4.05
2023-03-26T04:08:23.610Z,4.01
2023-03-26T04:11:30.279Z,3.75
2023-03-26T04:14:47.365Z,3.73
2023-03-26T04:17:53.558Z,3.75
2023-03-26T04:20:57.022Z,3.96
2023-03-26T04:24:03.579Z,4.19
2023-03-26T04:27:45.715Z,4.42
2023-03-26T04:30:56.482Z,4.50
2023-03-26T04:34:14.808Z,4.28
2023-03-26T04:37:35.189Z,4.17
2023-03-26T04:40:50.724Z,4.49
2023-03-26T04:44:17.650Z,4.52
2023-03-26T04:47:26.865Z,4.91
2023-03-26T04:50:31.178Z,5.16
2023-03-26T04:53:36.068Z,5.33
2023-03-26T04:57:09.302Z,5.23
2023-03-26T05:00:35.681Z,5.56
2023-03-26T05:03:41.314Z,6.01
2023-03-26T05:06:48.520Z,6.43
2023-03-26T05:09:58.817Z,6.43
2023-03-26T05:13:12.109Z,6.33
2023-03-26T05:16:22.959Z,6.21
2023-03-26T05:19:33.757Z,5.90
2023-03-26T05:22:39.514Z,6.02
2023-03-26T05:25:51.046Z,5.85
2023-03-26T05:28:58.952Z,5.79
2023-03-26T05:32:09.861Z,5.58
2023-03-26T05:35:13.974Z,5.46
2023-03-26T05:38:18.782Z,5.53
2023-03-26T05:41:22.969Z,5.58
2023-03-26T05:44:26.694Z,5.87
2023-03-26T05:47:30.293Z,5.51
2023-03-26T05:50:34.177Z,5.02
2023-03-26T05:53:37.165Z,4.61
2023-03-26T05:57:07.021Z,4.30
2023-03-26T06:00:29.205Z,4.36
2023-03-26T06:03:34.455Z,4.44
2023-03-26T06:06:57.610Z,4.75
2023-03-26T06:10:01.900Z,4.91
2023-03-26T06:13:05.544Z,5.16
2023-03-26T06:16:26.135Z,5.49
2023-03-26T06:20:09.970Z,5.70
2023-03-26T06:23:17.102Z,5.85
2023-03-26T06:26:30.270Z,6.15
2023-03-26T06:29:52.367Z,6.54
2023-03-26T06:33:24.077Z,6.98
2023-03-26T06:36:28.416Z,6.92
2023-03-26T06:39:32.246Z,6.74
2023-03-26T06:43:07.746Z,6.42
2023-03-26T06:46:29.538Z,6.43
2023-03-26T06:49:55.853Z,6.11
2023-03-26T06:53:17.038Z,5.88
2023-03-26T06:56:38.449Z,5.71
2023-03-26T07:00:15.098Z,5.58
2023-03-26T07:03:37.151Z,5.54
2023-03-26T07:06:58.618Z,5.33
2023-03-26T07:10:38.091Z,5.44
2023-03-26T07:14:03.584Z,5.23
2023-03-26T07:17:38.621Z,5.01
2023-03-26T07:20:51.740Z,4.96
2023-03-26T07:23:57.183Z,5.02
2023-03-26T07:27:27.736Z,5.13
2023-03-26T07:30:40.432Z,5.57
2023-03-26T07:35:03.940Z,6.69
2023-03-26T07:38:43.429Z,7.42
2023-03-26T07:42:46.717Z,7.26
2023-03-26T07:46:12.478Z,6.71
2023-03-26T07:49:39.215Z,6.11
2023-03-26T07:53:04.972Z,6.28
2023-03-26T07:57:07.844Z,6.74
2023-03-26T08:00:24.668Z,7.25
2023-03-26T08:03:57.178Z,7.35
2023-03-26T08:07:30.804Z,6.88
2023-03-26T08:11:14.725Z,7.01
2023-03-26T08:14:44.666Z,7.15
2023-03-26T08:18:27.814Z,8.69
2023-03-26T08:21:49.139Z,10.19
2023-03-26T08:25:34.433Z,11.73
2023-03-26T08:29:06.171Z,12.14
2023-03-26T08:32:16.406Z,13.36
2023-03-26T08:35:20.130Z,14.26
2023-03-26T08:38:24.410Z,14.79
2023-03-26T08:42:01.571Z,15.71
2023-03-26T08:45:44.117Z,16.55
2023-03-26T08:49:02.368Z,16.46
2023-03-26T08:52:18.239Z,13.85
2023-03-26T08:55:24.929Z,11.48
2023-03-26T08:58:49.580Z,11.04
2023-03-26T09:02:02.627Z,11.11
2023-03-26T09:05:37.007Z,11.42
2023-03-26T09:08:54.382Z,11.96
2023-03-26T09:12:45.229Z,12.75
2023-03-26T09:16:11.312Z,14.54
2023-03-26T09:19:45.968Z,14.78
2023-03-26T09:23:28.836Z,14.93
2023-03-26T09:26:53.870Z,15.98
2023-03-26T09:32:50.540Z,12.18
2023-03-26T09:36:14.554Z,12.23
2023-03-26T09:39:29.645Z,10.97
2023-03-26T09:42:46.159Z,11.70
2023-03-26T09:46:18.282Z,12.08
2023-03-26T09:50:04.250Z,12.96
2023-03-26T09:53:10.859Z,13.07
2023-03-26T09:56:59.475Z,13.14
2023-03-26T10:00:24.005Z,13.58
2023-03-26T10:03:38.954Z,13.69
2023-03-26T10:07:19.595Z,13.53
2023-03-26T10:10:51.630Z,13.31
2023-03-26T10:14:19.795Z,12.63
2023-03-26T10:18:02.545Z,10.99
2023-03-26T10:21:32.149Z,9.87
2023-03-26T10:27:11.482Z,7.88
2023-03-26T10:30:42.191Z,7.09
2023-03-26T10:34:09.577Z,6.32
2023-03-26T10:40:56.172Z,5.37
2023-03-26T10:44:26.479Z,5.13
2023-03-26T10:47:47.702Z,4.81
2023-03-26T10:51:20.920Z,4.56
2023-03-26T10:54:37.371Z,4.36
2023-03-26T10:57:53.558Z,4.19
2023-03-26T11:01:12.325Z,4.12
2023-03-26T11:05:45.179Z,4.02
2023-03-26T11:08:54.065Z,3.94
2023-03-26T11:12:26.600Z,3.88
2023-03-26T11:15:34.541Z,3.84
2023-03-26T11:19:13.143Z,3.81
2023-03-26T11:22:48.273Z,3.71
2023-03-26T11:26:00.374Z,3.63
2023-03-26T11:29:30.971Z,3.57
2023-03-26T11:32:48.861Z,3.50
2023-03-26T11:35:56.804Z,3.41
2023-03-26T11:39:05.494Z,3.29
2023-03-26T11:42:15.103Z,3.20
2023-03-26T11:45:25.709Z,3.06
2023-03-26T11:48:33.405Z,2.95
2023-03-26T11:51:39.630Z,2.85
2023-03-26T11:54:44.362Z,2.80
2023-03-26T11:57:56.230Z,2.73
2023-03-26T12:01:06.027Z,2.71
2023-03-26T12:04:16.450Z,2.51
2023-03-26T12:07:35.520Z,2.38
2023-03-26T12:10:43.666Z,2.22
2023-03-26T12:14:01.457Z,2.16
2023-03-26T12:17:09.409Z,2.12
2023-03-26T12:20:25.745Z,2.12
2023-03-26T12:23:57.893Z,1.88
2023-03-26T12:27:31.447Z,1.79
2023-03-26T12:30:46.024Z,1.75
2023-03-26T12:34:20.016Z,1.70
2023-03-26T12:37:37.068Z,1.72
2023-03-26T12:40:43.246Z,1.70
2023-03-26T12:44:53.414Z,1.62
2023-03-26T12:47:59.882Z,1.55
2023-03-26T12:51:07.675Z,1.46
2023-03-26T12:54:24.378Z,1.47
2023-03-26T12:57:42.042Z,1.43
2023-03-26T13:01:03.651Z,1.41
2023-03-26T13:04:29.281Z,1.32
2023-03-26T13:07:59.726Z,1.19
2023-03-26T13:11:20.689Z,1.16
2023-03-26T13:14:48.968Z,1.12
2023-03-26T13:18:21.810Z,0.95
2023-03-26T13:21:31.272Z,0.93
2023-03-26T13:24:49.160Z,0.93
2023-03-26T13:28:21.486Z,0.93
2023-03-26T13:31:51.273Z,0.96
2023-03-26T13:35:02.589Z,0.99
2023-03-26T13:38:09.075Z,0.99
2023-03-26T13:41:31.571Z,1.03
2023-03-26T13:44:41.018Z,0.96
2023-03-26T13:47:51.802Z,0.93
2023-03-26T13:51:18.856Z,0.95
2023-03-26T13:54:36.046Z,0.72
2023-03-26T13:57:47.526Z,0.86
2023-03-26T14:01:08.159Z,0.91
2023-03-26T14:04:35.132Z,0.91
2023-03-26T14:07:49.413Z,0.88
2023-03-26T14:11:20.350Z,0.82
2023-03-26T14:14:48.518Z,0.82
2023-03-26T14:18:22.723Z,0.76
2023-03-26T14:21:52.116Z,0.72
2023-03-26T14:24:59.760Z,0.67
2023-03-26T14:28:11.268Z,0.74
2023-03-26T14:31:38.291Z,0.81
2023-03-26T14:35:07.866Z,0.81
2023-03-26T14:38:34.244Z,0.86
2023-03-26T14:42:13.014Z,0.89
2023-03-26T14:45:31.644Z,0.89
2023-03-26T14:48:52.630Z,0.81
2023-03-26T14:52:03.285Z,0.78
2023-03-26T14:55:17.841Z,0.88
2023-03-26T14:58:40.624Z,0.86
2023-03-26T15:02:25.271Z,0.86
2023-03-26T15:05:59.335Z,0.76
2023-03-26T15:09:47.081Z,0.57
2023-03-26T15:13:12.766Z,0.38
2023-03-26T15:16:27.970Z,0.20
2023-03-26T15:20:09.767Z,0.10
2023-03-26T15:23:35.420Z,0.05
2023-03-26T15:27:13.960Z,0.03
2023-03-26T15:30:53.675Z,0.06
2023-03-26T15:34:33.250Z,0.10
2023-03-26T15:37:59.286Z,0.14
2023-03-26T15:41:29.962Z,0.11
2023-03-26T15:44:54.829Z,0.06
2023-03-26T15:48:15.241Z,0.05
2023-03-26T15:51:56.100Z,0.05
2023-03-26T15:55:12.516Z,0.00
2023-03-26T15:58:31.260Z,-0.04
2023-03-26T16:02:08.665Z,-0.18
2023-03-26T16:05:45.445Z,-0.26
2023-03-26T16:09:08.398Z,-0.32
2023-03-26T16:12:15.695Z,-0.35
2023-03-26T16:15:29.097Z,-0.40
2023-03-26T16:19:19.163Z,-0.49
2023-03-26T16:22:55.489Z,-0.50
2023-03-26T16:26:19.169Z,-0.60
2023-03-26T16:29:32.394Z,-0.65
2023-03-26T16:32:51.722Z,-0.72
2023-03-26T16:36:33.057Z,-0.76
2023-03-26T16:39:47.036Z,-0.83
2023-03-26T16:43:39.973Z,-0.86
2023-03-26T16:47:25.578Z,-0.84
2023-03-26T16:50:45.650Z,-0.87
2023-03-26T16:54:26.113Z,-0.95
2023-03-26T16:58:01.483Z,-1.03
2023-03-26T17:01:21.615Z,-1.11
2023-03-26T17:04:36.836Z,-1.25
2023-03-26T17:07:57.643Z,-1.31
2023-03-26T17:11:23.073Z,-1.34
2023-03-26T17:15:15.312Z,-1.41
2023-03-26T17:18:53.526Z,-1.55
2023-03-26T17:22:17.508Z,-1.67
2023-03-26T17:25:30.947Z,-1.77
2023-03-26T17:29:09.471Z,-1.94
2023-03-26T17:32:18.696Z,-2.05
2023-03-26T17:36:04.899Z,-2.15
2023-03-26T17:39:46.610Z,-2.22
2023-03-26T17:43:09.248Z,-2.32
2023-03-26T17:46:41.660Z,-2.38
2023-03-26T17:49:52.090Z,-2.49
2023-03-26T17:53:33.005Z,-2.65
2023-03-26T17:56:43.811Z,-2.72
2023-03-26T17:59:56.577Z,-2.72
2023-03-26T18:03:32.604Z,-2.76
2023-03-26T18:07:07.274Z,-2.76
2023-03-26T18:10:32.780Z,-2.84
2023-03-26T18:14:06.513Z,-2.94
2023-03-26T18:17:15.537Z,-3.03
2023-03-26T18:20:27.327Z,-3.07
2023-03-26T18:23:50.380Z,-3.12
2023-03-26T18:27:02.597Z,-3.25
2023-03-26T18:30:24.427Z,-3.34
2023-03-26T18:33:46.456Z,-3.39
2023-03-26T18:37:24.997Z,-3.42
2023-03-26T18:40:44.557Z,-3.48
2023-03-26T18:43:53.488Z,-3.50
2023-03-26T18:47:03.142Z,-3.50
2023-03-26T18:50:19.338Z,-3.55
2023-03-26T18:53:34.015Z,-3.62
2023-03-26T18:56:49.810Z,-3.59
2023-03-26T19:00:12.343Z,-3.60
2023-03-26T19:03:26.686Z,-3.67
2023-03-26T19:06:41.281Z,-3.67
2023-03-26T19:09:50.697Z,-3.71
2023-03-26T19:13:01.684Z,-3.69
2023-03-26T19:16:36.012Z,-3.62
2023-03-26T19:19:46.263Z,-3.62
2023-03-26T19:22:56.108Z,-3.59
2023-03-26T19:26:10.885Z,-3.62
2023-03-26T19:29:23.702Z,-3.53
2023-03-26T19:32:35.239Z,-3.50
2023-03-26T19:35:44.032Z,-3.49
2023-03-26T19:38:57.649Z,-3.48
2023-03-26T19:42:08.426Z,-3.53
2023-03-26T19:45:25.149Z,-3.63
2023-03-26T19:48:45.277Z,-3.79
2023-03-26T19:51:56.938Z,-3.97
2023-03-26T19:55:26.150Z,-4.00
2023-03-26T19:58:37.733Z,-4.02
2023-03-26T20:01:48.137Z,-4.08
2023-03-26T20:04:57.734Z,-4.04
2023-03-26T20:08:16.804Z,-3.93
2023-03-26T20:11:35.772Z,-3.83
2023-03-26T20:14:45.520Z,-3.86
2023-03-26T20:17:57.545Z,-3.88
2023-03-26T20:21:12.838Z,-3.95
2023-03-26T20:24:24.177Z,-4.08
2023-03-26T20:27:33.311Z,-4.21
2023-03-26T20:30:43.084Z,-4.30
2023-03-26T20:33:52.310Z,-4.41
2023-03-26T20:37:01.562Z,-4.55
2023-03-26T20:40:11.274Z,-4.65
2023-03-26T20:43:24.106Z,-4.67
2023-03-26T20:46:34.536Z,-4.72
2023-03-26T20:49:44.325Z,-4.81
2023-03-26T20:52:54.375Z,-4.90
2023-03-26T20:56:04.529Z,-5.03
2023-03-26T20:59:24.744Z,-5.08
2023-03-26T21:02:34.691Z,-5.07
2023-03-26T21:05:45.654Z,-5.07
2023-03-26T21:08:55.916Z,-5.07
2023-03-26T21:12:26.453Z,-5.09
2023-03-26T21:15:36.601Z,-5.19
2023-03-26T21:18:48.010Z,-5.26
2023-03-26T21:22:05.838Z,-5.36
2023-03-26T21:25:29.706Z,-5.44
2023-03-26T21:28:43.042Z,-5.53
2023-03-26T21:31:54.113Z,-5.55
2023-03-26T21:35:04.002Z,-5.50
2023-03-26T21:38:18.431Z,-5.49
2023-03-26T21:41:45.498Z,-5.49
2023-03-26T21:44:55.758Z,-5.52
2023-03-26T21:48:05.637Z,-5.49
2023-03-26T21:51:21.903Z,-5.49
2023-03-26T21:54:36.264Z,-5.50
2023-03-26T21:58:00.042Z,-5.50
2023-03-26T22:01:44.714Z,-5.44
2023-03-26T22:05:15.652Z,-5.46
2023-03-26T22:08:35.026Z,-5.49
2023-03-26T22:11:52.042Z,-5.53
2023-03-26T22:15:04.358Z,-5.62
2023-03-26T22:18:15.947Z,-5.64
2023-03-26T22:21:25.694Z,-5.64
2023-03-26T22:24:36.297Z,-5.63
2023-03-26T22:27:47.548Z,-5.63
2023-03-26T22:30:58.498Z,-5.67
2023-03-26T22:34:08.379Z,-5.56
2023-03-26T22:37:19.975Z,-5.56
2023-03-26T22:40:30.262Z,-5.44
2023-03-26T22:43:40.496Z,-5.35
2023-03-26T22:46:53.524Z,-5.23
2023-03-26T22:50:04.810Z,-5.16
2023-03-26T22:53:14.853Z,-5.04
2023-03-26T22:56:25.419Z,-4.94
2023-03-26T22:59:36.199Z,-5.03
2023-03-26T23:02:50.397Z,-5.03
2023-03-26T23:06:04.289Z,-4.83
2023-03-26T23:09:14.241Z,-4.67
2023-03-26T23:12:23.283Z,-4.52
2023-03-26T23:15:32.715Z,-4.42
2023-03-26T23:18:41.251Z,-4.35
2023-03-26T23:21:51.714Z,-4.26
2023-03-26T23:25:00.847Z,-4.21
2023-03-26T23:28:10.994Z,-4.04
2023-03-26T23:31:20.422Z,-3.97
2023-03-26T23:34:31.005Z,-3.83
2023-03-26T23:37:40.754Z,-3.69
2023-03-26T23:40:57.194Z,-3.50
2023-03-26T23:44:07.046Z,-3.43
2023-03-26T23:47:19.423Z,-3.28
2023-03-26T23:50:31.636Z,-3.14
2023-03-26T23:53:40.360Z,-3.01
2023-03-26T23:56:51.265Z,-2.97
